createdAt,value
2023-05-17T09:28:47.462Z,24.64
2023-05-17T09:31:16.790Z,24.94
2023-05-17T09:33:48.303Z,25.04
2023-05-17T09:36:18.298Z,25.06
2023-05-17T09:39:02.063Z,24.99
2023-05-17T09:41:43.087Z,24.99
2023-05-17T09:44:10.577Z,25.06
2023-05-17T09:46:48.057Z,25.10
2023-05-17T09:49:16.357Z,25.07
2023-05-17T09:51:45.035Z,25.03
2023-05-17T09:54:12.477Z,24.98
2023-05-17T09:56:44.282Z,24.92
2023-05-17T09:59:16.382Z,24.87
2023-05-17T10:01:48.171Z,24.84
2023-05-17T10:04:20.827Z,24.89
2023-05-17T10:06:51.710Z,24.98
2023-05-17T10:09:22.311Z,25.03
2023-05-17T10:11:49.667Z,25.06
2023-05-17T10:14:35.103Z,25.05
2023-05-17T10:17:03.338Z,25.07
2023-05-17T10:19:30.783Z,25.05
2023-05-17T10:22:05.088Z,25.04
2023-05-17T10:24:38.375Z,25.04
2023-05-17T10:27:06.772Z,25.05
2023-05-17T10:29:35.024Z,25.07
2023-05-17T10:32:07.458Z,25.07
2023-05-17T10:34:36.234Z,25.10
2023-05-17T10:37:03.924Z,25.15
2023-05-17T10:39:34.394Z,25.24
2023-05-17T10:42:13.671Z,25.30
2023-05-17T10:44:41.802Z,25.29
2023-05-17T10:47:09.143Z,25.36
2023-05-17T10:49:37.672Z,25.47
2023-05-17T10:52:16.070Z,25.41
2023-05-17T10:54:44.252Z,25.47
2023-05-17T10:57:24.053Z,25.36
2023-05-17T11:00:00.744Z,25.22
2023-05-17T11:02:28.527Z,25.19
2023-05-17T11:05:00.580Z,25.18
2023-05-17T11:07:37.471Z,25.20
2023-05-17T11:10:07.229Z,25.20
2023-05-17T11:12:42.566Z,25.15
2023-05-17T11:15:16.117Z,25.07
2023-05-17T11:17:43.116Z,25.08
2023-05-17T11:20:17.302Z,25.04
2023-05-17T11:22:53.069Z,25.04
2023-05-17T11:25:21.682Z,25.07
2023-05-17T11:27:49.932Z,25.11
2023-05-17T11:30:31.088Z,25.18
2023-05-17T11:33:02.095Z,25.24
2023-05-17T11:35:35.500Z,25.34
2023-05-17T11:38:24.818Z,25.48
2023-05-17T11:40:55.560Z,25.49
2023-05-17T11:43:27.525Z,25.49
2023-05-17T11:45:57.812Z,24.80
2023-05-17T11:48:26.577Z,24.72
2023-05-17T11:50:54.790Z,24.67
2023-05-17T11:53:22.122Z,24.63
2023-05-17T11:55:52.997Z,24.62
2023-05-17T11:58:27.026Z,24.64
2023-05-17T12:00:55.911Z,24.58
2023-05-17T12:03:29.545Z,24.58
2023-05-17T12:06:07.019Z,24.59
2023-05-17T12:08:34.972Z,24.61
2023-05-17T12:11:05.231Z,24.69
2023-05-17T12:13:33.993Z,24.78
2023-05-17T12:16:05.933Z,24.87
2023-05-17T12:18:52.727Z,24.91
2023-05-17T12:21:21.581Z,24.91
2023-05-17T12:23:52.149Z,24.89
2023-05-17T12:26:22.500Z,24.82
2023-05-17T12:28:57.703Z,24.75
2023-05-17T12:31:35.359Z,24.70
2023-05-17T12:34:02.993Z,24.74
2023-05-17T12:36:30.302Z,24.81
2023-05-17T12:38:57.397Z,24.85
2023-05-17T12:41:26.410Z,24.84
2023-05-17T12:44:06.204Z,24.81
2023-05-17T12:46:40.612Z,24.75
2023-05-17T12:49:12.168Z,24.65
2023-05-17T12:51:43.961Z,24.53
2023-05-17T12:54:16.247Z,24.48
2023-05-17T12:56:44.719Z,24.44
2023-05-17T12:59:13.177Z,24.43
2023-05-17T13:01:45.058Z,24.36
2023-05-17T13:04:14.310Z,24.31
2023-05-17T13:06:51.982Z,24.25
2023-05-17T13:09:21.004Z,24.19
2023-05-17T13:12:05.139Z,24.04
2023-05-17T13:14:36.791Z,23.93
2023-05-17T13:17:06.032Z,23.89
2023-05-17T13:19:36.021Z,23.83
2023-05-17T13:22:04.665Z,23.68
2023-05-17T13:24:34.558Z,23.54
2023-05-17T13:27:02.138Z,23.43
2023-05-17T13:29:38.763Z,23.35
2023-05-17T13:32:10.313Z,23.25
2023-05-17T13:34:37.482Z,23.11
2023-05-17T13:37:05.044Z,22.97
2023-05-17T13:39:33.414Z,22.78
2023-05-17T13:42:02.539Z,22.61
2023-05-17T13:44:31.811Z,22.56
2023-05-17T13:46:59.207Z,22.55
2023-05-17T13:49:26.836Z,22.53
2023-05-17T13:51:53.788Z,22.42
2023-05-17T13:54:22.219Z,22.46
2023-05-17T13:56:49.337Z,22.47
2023-05-17T13:59:16.453Z,22.46
2023-05-17T14:01:44.159Z,22.45
2023-05-17T14:04:12.155Z,22.28
2023-05-17T14:06:39.394Z,22.24
2023-05-17T14:09:06.647Z,22.28
2023-05-17T14:11:34.310Z,22.38
2023-05-17T14:14:01.748Z,22.27
2023-05-17T14:16:29.936Z,22.19
2023-05-17T14:18:57.110Z,22.19
2023-05-17T14:21:24.162Z,22.09
2023-05-17T14:23:51.634Z,21.96
2023-05-17T14:26:18.683Z,21.88
2023-05-17T14:28:45.794Z,21.91
2023-05-17T14:31:12.777Z,21.86
2023-05-17T14:33:39.887Z,21.82
2023-05-17T14:36:07.725Z,21.78
2023-05-17T14:38:34.945Z,21.80
2023-05-17T14:41:02.611Z,21.63
2023-05-17T14:43:29.584Z,21.46
2023-05-17T14:50:23.066Z,21.23
2023-05-17T14:52:50.182Z,21.14
2023-05-17T14:55:17.851Z,20.87
2023-05-17T14:57:44.924Z,20.88
2023-05-17T15:00:12.748Z,20.85
2023-05-17T15:02:39.884Z,20.75
2023-05-17T15:05:07.672Z,20.68
2023-05-17T15:07:34.916Z,20.61
2023-05-17T15:10:06.269Z,20.59
2023-05-17T15:12:33.419Z,20.63
2023-05-17T15:15:00.703Z,20.58
2023-05-17T15:17:28.368Z,20.56
2023-05-17T15:19:57.882Z,20.41
2023-05-17T15:22:25.595Z,20.34
2023-05-17T15:24:54.359Z,20.37
2023-05-17T15:27:21.617Z,20.37
2023-05-17T15:29:48.583Z,20.47
2023-05-17T15:32:15.638Z,20.44
2023-05-17T15:34:42.603Z,20.55
2023-05-17T15:37:09.824Z,20.59
2023-05-17T15:39:36.901Z,20.57
2023-05-17T15:42:04.452Z,20.57
2023-05-17T15:44:31.578Z,20.47
2023-05-17T15:46:59.877Z,20.37
2023-05-17T15:49:28.612Z,20.38
2023-05-17T15:51:55.581Z,20.43
2023-05-17T15:54:22.490Z,20.45
2023-05-17T15:56:49.408Z,20.49
2023-05-17T15:59:16.527Z,20.48
2023-05-17T16:01:47.001Z,20.45
2023-05-17T16:04:14.269Z,20.29
2023-05-17T16:06:41.442Z,20.32
2023-05-17T16:09:08.589Z,20.33
2023-05-17T16:11:35.667Z,20.26
2023-05-17T16:14:02.680Z,20.19
2023-05-17T16:16:29.839Z,20.12
2023-05-17T16:18:58.421Z,20.10
2023-05-17T16:21:26.264Z,20.11
2023-05-17T16:23:53.539Z,20.10
2023-05-17T16:26:21.278Z,20.12
2023-05-17T16:28:48.350Z,20.08
2023-05-17T16:31:15.555Z,19.78
2023-05-17T16:33:42.787Z,19.83
2023-05-17T16:36:10.716Z,19.92
2023-05-17T16:38:37.915Z,19.87
2023-05-17T16:41:05.015Z,19.76
2023-05-17T16:43:32.063Z,19.85
2023-05-17T16:45:59.116Z,19.84
2023-05-17T16:48:26.214Z,19.89
2023-05-17T16:50:54.164Z,19.89
2023-05-17T16:53:22.221Z,19.86
2023-05-17T16:55:49.241Z,19.91
2023-05-17T16:58:16.318Z,19.77
2023-05-17T17:00:43.438Z,19.62
2023-05-17T17:03:11.379Z,19.81
2023-05-17T17:05:38.453Z,19.81
2023-05-17T17:08:05.708Z,19.70
2023-05-17T17:10:32.750Z,19.84
2023-05-17T17:12:59.797Z,19.84
2023-05-17T17:15:27.045Z,19.83
2023-05-17T17:17:54.047Z,19.77
2023-05-17T17:20:21.082Z,19.81
2023-05-17T17:22:48.128Z,19.69
2023-05-17T17:25:15.075Z,19.73
2023-05-17T17:27:42.376Z,19.73
2023-05-17T17:30:10.070Z,19.83
2023-05-17T17:32:37.868Z,19.88
2023-05-17T17:35:05.873Z,19.88
2023-05-17T17:37:33.029Z,19.93
2023-05-17T17:40:00.228Z,19.94
2023-05-17T17:42:27.889Z,19.99
2023-05-17T17:44:55.522Z,20.06
2023-05-17T17:47:22.670Z,20.04
2023-05-17T17:49:49.996Z,20.03
2023-05-17T17:52:16.977Z,20.07
2023-05-17T17:54:45.991Z,20.05
2023-05-17T17:57:13.300Z,19.97
2023-05-17T17:59:40.379Z,19.94
2023-05-17T18:02:07.289Z,19.89
2023-05-17T18:04:34.347Z,19.86
2023-05-17T18:07:02.254Z,19.61
2023-05-17T18:09:29.203Z,19.55
2023-05-17T18:11:57.205Z,19.53
2023-05-17T18:14:24.247Z,19.45
2023-05-17T18:16:51.277Z,19.41
2023-05-17T18:19:18.386Z,19.40
2023-05-17T18:21:46.110Z,19.47
2023-05-17T18:24:13.472Z,19.59
2023-05-17T18:26:40.716Z,19.61
2023-05-17T18:29:07.769Z,19.56
2023-05-17T18:31:34.853Z,19.55
2023-05-17T18:34:02.385Z,19.47
2023-05-17T18:36:29.410Z,19.46
2023-05-17T18:38:58.915Z,19.46
2023-05-17T18:41:26.371Z,19.47
2023-05-17T18:43:53.519Z,19.43
2023-05-17T18:46:20.607Z,19.47
2023-05-17T18:48:47.586Z,19.38
2023-05-17T18:51:15.835Z,19.44
2023-05-17T18:53:42.966Z,19.51
2023-05-17T18:56:10.035Z,19.55
2023-05-17T18:58:37.093Z,19.58
2023-05-17T19:01:04.100Z,19.49
2023-05-17T19:03:31.438Z,19.43
2023-05-17T19:05:58.417Z,19.48
2023-05-17T19:08:25.630Z,19.39
2023-05-17T19:10:52.777Z,19.29
2023-05-17T19:13:19.744Z,19.25
2023-05-17T19:15:46.698Z,19.24
2023-05-17T19:18:13.759Z,19.24
2023-05-17T19:20:40.759Z,19.22
2023-05-17T19:23:08.004Z,19.25
2023-05-17T19:25:35.053Z,19.27
2023-05-17T19:28:02.061Z,19.30
2023-05-17T19:30:32.570Z,19.34
2023-05-17T19:32:59.919Z,19.35
2023-05-17T19:35:26.831Z,19.46
2023-05-17T19:37:56.750Z,19.50
2023-05-17T19:40:24.436Z,19.51
2023-05-17T19:42:51.564Z,19.36
2023-05-17T19:45:18.702Z,19.23
2023-05-17T19:47:45.883Z,19.21
2023-05-17T19:50:13.617Z,19.23
2023-05-17T19:52:40.659Z,19.25
2023-05-17T19:55:07.814Z,19.23
2023-05-17T19:57:34.954Z,19.21
2023-05-17T20:00:02.483Z,19.16
2023-05-17T20:02:31.499Z,19.23
2023-05-17T20:05:02.339Z,19.32
2023-05-17T20:07:30.759Z,19.40
2023-05-17T20:09:57.772Z,19.44
2023-05-17T20:12:26.036Z,19.50
2023-05-17T20:14:53.633Z,19.53
2023-05-17T20:17:21.155Z,19.51
2023-05-17T20:19:48.214Z,19.26
2023-05-17T20:22:15.181Z,19.14
2023-05-17T20:24:44.106Z,19.15
2023-05-17T20:27:11.606Z,19.05
2023-05-17T20:29:39.761Z,19.02
2023-05-17T20:32:07.418Z,19.06
2023-05-17T20:34:34.542Z,19.26
2023-05-17T20:37:01.515Z,19.23
2023-05-17T20:39:28.868Z,19.07
2023-05-17T20:41:57.066Z,19.06
2023-05-17T20:44:26.059Z,19.09
2023-05-17T20:46:54.920Z,19.20
2023-05-17T20:49:21.971Z,19.28
2023-05-17T20:51:49.021Z,19.28
2023-05-17T20:54:16.171Z,19.27
2023-05-17T20:56:43.527Z,19.33
2023-05-17T20:59:10.906Z,19.33
2023-05-17T21:01:37.946Z,19.33
2023-05-17T21:04:05.224Z,19.35
2023-05-17T21:06:32.804Z,19.29
2023-05-17T21:09:02.631Z,19.27
2023-05-17T21:11:29.968Z,19.28
2023-05-17T21:14:00.179Z,19.26
2023-05-17T21:16:27.355Z,19.30
2023-05-17T21:18:54.576Z,19.30
2023-05-17T21:21:21.773Z,19.33
2023-05-17T21:23:48.999Z,19.31
2023-05-17T21:26:16.066Z,19.25
2023-05-17T21:28:43.122Z,19.25
2023-05-17T21:31:10.193Z,19.29
2023-05-17T21:33:37.410Z,19.31
2023-05-17T21:36:04.491Z,19.26
2023-05-17T21:38:31.606Z,19.24
2023-05-17T21:40:58.675Z,19.18
2023-05-17T21:43:25.813Z,19.13
2023-05-17T21:45:52.745Z,19.17
2023-05-17T21:48:19.700Z,19.22
2023-05-17T21:50:46.837Z,19.29
2023-05-17T21:53:13.959Z,19.29
2023-05-17T21:55:56.348Z,19.30
2023-05-17T21:58:28.090Z,19.31
2023-05-17T22:00:55.179Z,19.31
2023-05-17T22:03:22.541Z,19.32
2023-05-17T22:05:49.688Z,19.29
2023-05-17T22:08:16.631Z,19.33
2023-05-17T22:10:43.793Z,19.34
2023-05-17T22:13:12.598Z,19.25
2023-05-17T22:15:41.773Z,19.27
2023-05-17T22:18:09.363Z,19.16
2023-05-17T22:20:36.310Z,19.14
2023-05-17T22:23:03.319Z,19.14
2023-05-17T22:25:30.375Z,19.08
2023-05-17T22:27:57.520Z,19.07
2023-05-17T22:30:24.583Z,19.04
2023-05-17T22:32:54.813Z,19.04
2023-05-17T22:35:21.931Z,19.16
2023-05-17T22:37:50.222Z,19.23
2023-05-17T22:40:17.348Z,19.21
2023-05-17T22:42:45.039Z,19.21
2023-05-17T22:45:14.935Z,18.99
2023-05-17T22:47:43.035Z,18.91
2023-05-17T22:50:12.129Z,18.92
2023-05-17T22:52:41.408Z,18.95
2023-05-17T22:55:10.054Z,18.95
2023-05-17T22:57:37.000Z,18.99
2023-05-17T23:00:09.510Z,19.02
2023-05-17T23:02:36.792Z,19.00
2023-05-17T23:05:05.038Z,18.95
2023-05-17T23:07:38.746Z,18.92
2023-05-17T23:10:07.096Z,18.95
2023-05-17T23:12:35.183Z,18.95
2023-05-17T23:15:03.341Z,18.97
2023-05-17T23:17:32.824Z,18.95
2023-05-17T23:20:13.072Z,19.02
2023-05-17T23:22:40.343Z,19.11
2023-05-17T23:25:07.944Z,19.12
2023-05-17T23:27:35.684Z,18.97
2023-05-17T23:30:03.032Z,18.90
2023-05-17T23:32:32.637Z,18.84
2023-05-17T23:35:03.934Z,18.77
2023-05-17T23:37:32.180Z,18.79
2023-05-17T23:39:59.623Z,18.77
2023-05-17T23:42:26.529Z,18.76
2023-05-17T23:44:53.610Z,18.76
2023-05-17T23:47:20.658Z,18.81
2023-05-17T23:49:47.842Z,18.80
2023-05-17T23:52:15.168Z,18.80
2023-05-17T23:54:42.132Z,18.82
2023-05-17T23:57:09.355Z,18.86
2023-05-17T23:59:37.120Z,18.76
